sensor_id;sensor_type;location;lat;lon;timestamp;P1;durP1;ratioP1;P2;durP2;ratioP2
2940;SDS011;1480;51.456;6.670;2022-12-16T07:17:54;65.67;;;37.13;;
2940;SDS011;1480;51.456;6.670;2022-12-16T07:20:38;57.60;;;30.90;;
2940;SDS011;1480;51.456;6.670;2022-12-16T07:23:23;63.83;;;34.27;;
2940;SDS011;1480;51.456;6.670;2022-12-16T07:26:08;70.37;;;37.60;;
2940;SDS011;1480;51.456;6.670;2022-12-16T07:28:53;73.30;;;35.93;;
2940;SDS011;1480;51.456;6.670;2022-12-16T07:31:38;64.00;;;34.43;;
2940;SDS011;1480;51.456;6.670;2022-12-16T07:34:22;71.47;;;35.10;;
2940;SDS011;1480;51.456;6.670;2022-12-16T07:37:06;74.17;;;37.90;;
2940;SDS011;1480;51.456;6.670;2022-12-16T07:39:51;68.03;;;35.93;;
2940;SDS011;1480;51.456;6.670;2022-12-16T07:42:36;58.87;;;31.57;;
2940;SDS011;1480;51.456;6.670;2022-12-16T07:45:19;67.03;;;37.60;;
2940;SDS011;1480;51.456;6.670;2022-12-16T07:48:04;66.37;;;35.40;;
2940;SDS011;1480;51.456;6.670;2022-12-16T07:50:49;70.00;;;38.67;;
2940;SDS011;1480;51.456;6.670;2022-12-16T07:53:33;63.70;;;34.30;;
2940;SDS011;1480;51.456;6.670;2022-12-16T07:56:18;66.63;;;34.10;;
2940;SDS011;1480;51.456;6.670;2022-12-16T07:59:04;63.03;;;35.17;;
2940;SDS011;1480;51.456;6.670;2022-12-16T08:01:47;60.30;;;32.80;;
2940;SDS011;1480;51.456;6.670;2022-12-16T08:04:32;57.93;;;34.80;;
2940;SDS011;1480;51.456;6.670;2022-12-16T08:07:16;61.77;;;32.27;;
2940;SDS011;1480;51.456;6.670;2022-12-16T08:10:01;57.17;;;29.43;;
2940;SDS011;1480;51.456;6.670;2022-12-16T08:12:45;59.20;;;29.77;;
2940;SDS011;1480;51.456;6.670;2022-12-16T08:15:31;53.80;;;32.90;;
2940;SDS011;1480;51.456;6.670;2022-12-16T08:18:15;62.97;;;29.27;;
2940;SDS011;1480;51.456;6.670;2022-12-16T08:21:01;59.30;;;32.20;;
2940;SDS011;1480;51.456;6.670;2022-12-16T08:23:44;60.40;;;33.77;;
2940;SDS011;1480;51.456;6.670;2022-12-16T08:26:28;73.03;;;37.87;;
2940;SDS011;1480;51.456;6.670;2022-12-16T08:29:13;68.63;;;34.80;;
2940;SDS011;1480;51.456;6.670;2022-12-16T08:31:59;61.87;;;32.83;;
2940;SDS011;1480;51.456;6.670;2022-12-16T08:34:43;60.80;;;35.03;;
2940;SDS011;1480;51.456;6.670;2022-12-16T08:37:27;57.03;;;30.97;;
2940;SDS011;1480;51.456;6.670;2022-12-16T08:40:12;56.30;;;35.30;;
2940;SDS011;1480;51.456;6.670;2022-12-16T08:42:56;65.00;;;34.17;;
2940;SDS011;1480;51.456;6.670;2022-12-16T08:45:41;62.47;;;34.03;;
2940;SDS011;1480;51.456;6.670;2022-12-16T08:48:27;63.70;;;33.10;;
2940;SDS011;1480;51.456;6.670;2022-12-16T08:51:11;53.73;;;29.00;;
2940;SDS011;1480;51.456;6.670;2022-12-16T08:53:55;56.57;;;35.17;;
2940;SDS011;1480;51.456;6.670;2022-12-16T08:56:40;70.40;;;36.30;;
2940;SDS011;1480;51.456;6.670;2022-12-16T08:59:25;68.63;;;35.20;;
2940;SDS011;1480;51.456;6.670;2022-12-16T09:02:09;79.03;;;35.83;;
2940;SDS011;1480;51.456;6.670;2022-12-16T09:04:56;84.63;;;41.67;;
2940;SDS011;1480;51.456;6.670;2022-12-16T09:07:36;63.43;;;33.87;;
2940;SDS011;1480;51.456;6.670;2022-12-16T09:10:21;65.90;;;34.77;;
2940;SDS011;1480;51.456;6.670;2022-12-16T09:13:06;71.47;;;36.20;;
2940;SDS011;1480;51.456;6.670;2022-12-16T09:15:51;77.67;;;37.10;;
2940;SDS011;1480;51.456;6.670;2022-12-16T09:18:35;90.97;;;39.57;;
2940;SDS011;1480;51.456;6.670;2022-12-16T09:21:21;91.90;;;38.90;;
2940;SDS011;1480;51.456;6.670;2022-12-16T09:24:06;77.97;;;34.67;;
2940;SDS011;1480;51.456;6.670;2022-12-16T09:26:50;65.20;;;32.00;;
2940;SDS011;1480;51.456;6.670;2022-12-16T09:29:35;87.03;;;37.97;;
2940;SDS011;1480;51.456;6.670;2022-12-16T09:32:19;72.27;;;36.50;;
2940;SDS011;1480;51.456;6.670;2022-12-16T09:35:04;81.23;;;35.57;;
2940;SDS011;1480;51.456;6.670;2022-12-16T09:37:50;69.90;;;37.03;;
2940;SDS011;1480;51.456;6.670;2022-12-16T09:40:36;79.00;;;38.33;;
2940;SDS011;1480;51.456;6.670;2022-12-16T09:43:26;82.63;;;36.90;;
2940;SDS011;1480;51.456;6.670;2022-12-16T09:46:35;80.93;;;35.57;;
2940;SDS011;1480;51.456;6.670;2022-12-16T09:49:43;76.83;;;35.80;;
2940;SDS011;1480;51.456;6.670;2022-12-16T09:52:30;75.37;;;40.37;;
2940;SDS011;1480;51.456;6.670;2022-12-16T09:55:23;82.80;;;37.90;;
2940;SDS011;1480;51.456;6.670;2022-12-16T09:58:11;72.67;;;38.47;;
2940;SDS011;1480;51.456;6.670;2022-12-16T10:00:56;82.60;;;37.70;;
2940;SDS011;1480;51.456;6.670;2022-12-16T10:03:41;80.63;;;36.77;;
2940;SDS011;1480;51.456;6.670;2022-12-16T10:06:36;89.17;;;40.97;;
2940;SDS011;1480;51.456;6.670;2022-12-16T10:09:26;84.80;;;36.73;;
2940;SDS011;1480;51.456;6.670;2022-12-16T10:12:27;78.17;;;35.57;;
2940;SDS011;1480;51.456;6.670;2022-12-16T10:15:23;109.33;;;36.63;;
2940;SDS011;1480;51.456;6.670;2022-12-16T10:18:12;70.03;;;37.90;;
2940;SDS011;1480;51.456;6.670;2022-12-16T10:21:04;79.67;;;35.43;;
2940;SDS011;1480;51.456;6.670;2022-12-16T10:23:54;82.30;;;40.17;;
2940;SDS011;1480;51.456;6.670;2022-12-16T10:26:47;85.80;;;40.27;;
2940;SDS011;1480;51.456;6.670;2022-12-16T10:29:38;80.10;;;36.07;;
2940;SDS011;1480;51.456;6.670;2022-12-16T10:32:26;100.30;;;47.37;;
2940;SDS011;1480;51.456;6.670;2022-12-16T10:35:25;89.90;;;43.27;;
2940;SDS011;1480;51.456;6.670;2022-12-16T10:38:14;78.13;;;37.40;;
2940;SDS011;1480;51.456;6.670;2022-12-16T10:41:03;124.43;;;46.57;;
2940;SDS011;1480;51.456;6.670;2022-12-16T10:43:50;83.73;;;40.37;;
2940;SDS011;1480;51.456;6.670;2022-12-16T10:46:38;113.27;;;41.03;;
2940;SDS011;1480;51.456;6.670;2022-12-16T10:49:22;94.97;;;43.17;;
2940;SDS011;1480;51.456;6.670;2022-12-16T10:52:08;83.43;;;40.50;;
2940;SDS011;1480;51.456;6.670;2022-12-16T10:54:56;123.97;;;45.93;;
2940;SDS011;1480;51.456;6.670;2022-12-16T10:57:49;125.63;;;51.43;;
2940;SDS011;1480;51.456;6.670;2022-12-16T11:00:41;111.83;;;50.90;;
2940;SDS011;1480;51.456;6.670;2022-12-16T11:03:29;133.10;;;54.60;;
2940;SDS011;1480;51.456;6.670;2022-12-16T11:06:15;106.37;;;48.83;;
2940;SDS011;1480;51.456;6.670;2022-12-16T11:12:16;130.43;;;52.63;;
2940;SDS011;1480;51.456;6.670;2022-12-16T11:15:17;127.07;;;53.73;;
2940;SDS011;1480;51.456;6.670;2022-12-16T11:18:13;151.17;;;53.13;;
2940;SDS011;1480;51.456;6.670;2022-12-16T11:21:14;164.17;;;60.57;;
2940;SDS011;1480;51.456;6.670;2022-12-16T11:24:09;147.97;;;54.17;;
2940;SDS011;1480;51.456;6.670;2022-12-16T11:26:56;135.20;;;51.77;;
2940;SDS011;1480;51.456;6.670;2022-12-16T11:29:52;160.33;;;58.30;;
2940;SDS011;1480;51.456;6.670;2022-12-16T11:32:39;158.50;;;54.63;;
2940;SDS011;1480;51.456;6.670;2022-12-16T11:35:28;138.37;;;54.10;;
2940;SDS011;1480;51.456;6.670;2022-12-16T11:38:21;180.60;;;57.40;;
2940;SDS011;1480;51.456;6.670;2022-12-16T11:41:21;125.47;;;43.73;;
2940;SDS011;1480;51.456;6.670;2022-12-16T11:44:11;152.93;;;50.27;;
2940;SDS011;1480;51.456;6.670;2022-12-16T11:47:00;142.03;;;52.07;;
2940;SDS011;1480;51.456;6.670;2022-12-16T11:49:44;153.97;;;54.00;;
2940;SDS011;1480;51.456;6.670;2022-12-16T11:52:29;119.57;;;45.50;;
2940;SDS011;1480;51.456;6.670;2022-12-16T11:55:20;131.63;;;49.33;;
2940;SDS011;1480;51.456;6.670;2022-12-16T11:58:11;138.20;;;49.80;;
2940;SDS011;1480;51.456;6.670;2022-12-16T12:01:02;152.30;;;52.00;;
2940;SDS011;1480;51.456;6.670;2022-12-16T12:04:00;137.40;;;49.00;;
2940;SDS011;1480;51.456;6.670;2022-12-16T12:06:50;149.60;;;54.50;;
2940;SDS011;1480;51.456;6.670;2022-12-16T12:09:48;131.70;;;53.90;;
2940;SDS011;1480;51.456;6.670;2022-12-16T12:12:39;147.47;;;54.03;;
2940;SDS011;1480;51.456;6.670;2022-12-16T12:15:32;138.23;;;52.50;;
2940;SDS011;1480;51.456;6.670;2022-12-16T12:18:23;131.57;;;55.50;;
2940;SDS011;1480;51.456;6.670;2022-12-16T12:21:19;154.10;;;55.13;;
2940;SDS011;1480;51.456;6.670;2022-12-16T12:24:08;166.43;;;55.10;;
2940;SDS011;1480;51.456;6.670;2022-12-16T12:27:05;148.43;;;51.37;;
2940;SDS011;1480;51.456;6.670;2022-12-16T12:30:00;175.40;;;60.63;;
2940;SDS011;1480;51.456;6.670;2022-12-16T12:32:49;161.50;;;54.10;;
2940;SDS011;1480;51.456;6.670;2022-12-16T12:35:47;166.27;;;50.00;;
2940;SDS011;1480;51.456;6.670;2022-12-16T12:38:39;157.73;;;52.40;;
2940;SDS011;1480;51.456;6.670;2022-12-16T12:41:39;135.70;;;49.40;;
2940;SDS011;1480;51.456;6.670;2022-12-16T12:44:42;128.47;;;48.20;;
2940;SDS011;1480;51.456;6.670;2022-12-16T12:47:41;123.37;;;45.33;;
2940;SDS011;1480;51.456;6.670;2022-12-16T12:50:34;120.67;;;47.50;;
2940;SDS011;1480;51.456;6.670;2022-12-16T12:53:25;129.20;;;46.17;;
2940;SDS011;1480;51.456;6.670;2022-12-16T12:56:18;134.50;;;51.57;;
2940;SDS011;1480;51.456;6.670;2022-12-16T12:59:12;119.87;;;45.30;;
2940;SDS011;1480;51.456;6.670;2022-12-16T13:02:01;108.80;;;47.70;;
2940;SDS011;1480;51.456;6.670;2022-12-16T13:04:50;141.37;;;50.97;;
2940;SDS011;1480;51.456;6.670;2022-12-16T13:07:35;137.53;;;49.00;;
2940;SDS011;1480;51.456;6.670;2022-12-16T13:10:30;121.17;;;46.80;;
2940;SDS011;1480;51.456;6.670;2022-12-16T13:13:20;135.07;;;51.50;;
2940;SDS011;1480;51.456;6.670;2022-12-16T13:16:14;123.23;;;47.57;;
2940;SDS011;1480;51.456;6.670;2022-12-16T13:19:57;124.73;;;50.33;;
2940;SDS011;1480;51.456;6.670;2022-12-16T13:22:42;124.50;;;49.73;;
2940;SDS011;1480;51.456;6.670;2022-12-16T13:25:37;157.27;;;51.23;;
2940;SDS011;1480;51.456;6.670;2022-12-16T13:28:37;162.57;;;54.53;;
2940;SDS011;1480;51.456;6.670;2022-12-16T13:31:24;147.90;;;50.77;;
2940;SDS011;1480;51.456;6.670;2022-12-16T13:34:19;160.57;;;51.00;;
2940;SDS011;1480;51.456;6.670;2022-12-16T13:37:17;148.07;;;54.30;;
2940;SDS011;1480;51.456;6.670;2022-12-16T13:40:05;145.07;;;52.50;;
2940;SDS011;1480;51.456;6.670;2022-12-16T13:42:59;160.93;;;50.17;;
2940;SDS011;1480;51.456;6.670;2022-12-16T13:45:43;126.50;;;47.13;;
2940;SDS011;1480;51.456;6.670;2022-12-16T13:52:24;119.90;;;47.70;;
2940;SDS011;1480;51.456;6.670;2022-12-16T13:55:20;137.63;;;51.57;;
2940;SDS011;1480;51.456;6.670;2022-12-16T13:58:11;145.83;;;52.17;;
2940;SDS011;1480;51.456;6.670;2022-12-16T14:01:03;120.43;;;46.53;;
2940;SDS011;1480;51.456;6.670;2022-12-16T14:03:52;130.10;;;47.40;;
2940;SDS011;1480;51.456;6.670;2022-12-16T14:06:40;150.33;;;50.30;;
2940;SDS011;1480;51.456;6.670;2022-12-16T14:09:33;145.83;;;48.97;;
2940;SDS011;1480;51.456;6.670;2022-12-16T14:12:34;126.47;;;48.37;;
2940;SDS011;1480;51.456;6.670;2022-12-16T14:15:27;106.07;;;47.80;;
2940;SDS011;1480;51.456;6.670;2022-12-16T14:18:22;142.73;;;53.70;;
2940;SDS011;1480;51.456;6.670;2022-12-16T14:21:14;137.20;;;51.73;;
2940;SDS011;1480;51.456;6.670;2022-12-16T14:24:04;137.50;;;51.90;;
2940;SDS011;1480;51.456;6.670;2022-12-16T14:26:55;132.90;;;51.53;;
2940;SDS011;1480;51.456;6.670;2022-12-16T14:29:41;157.03;;;53.10;;
2940;SDS011;1480;51.456;6.670;2022-12-16T14:32:27;130.10;;;48.50;;
2940;SDS011;1480;51.456;6.670;2022-12-16T14:35:13;136.50;;;53.20;;
2940;SDS011;1480;51.456;6.670;2022-12-16T14:38:11;124.87;;;50.13;;
2940;SDS011;1480;51.456;6.670;2022-12-16T14:41:03;138.53;;;53.30;;
2940;SDS011;1480;51.456;6.670;2022-12-16T14:43:49;126.60;;;50.40;;
2940;SDS011;1480;51.456;6.670;2022-12-16T14:46:33;134.97;;;49.90;;
2940;SDS011;1480;51.456;6.670;2022-12-16T14:49:19;130.97;;;52.10;;
2940;SDS011;1480;51.456;6.670;2022-12-16T14:52:11;127.30;;;51.23;;
2940;SDS011;1480;51.456;6.670;2022-12-16T14:55:05;117.63;;;48.67;;
2940;SDS011;1480;51.456;6.670;2022-12-16T14:58:00;124.57;;;49.83;;
2940;SDS011;1480;51.456;6.670;2022-12-16T15:00:52;116.00;;;50.23;;
2940;SDS011;1480;51.456;6.670;2022-12-16T15:03:41;110.93;;;49.37;;
2940;SDS011;1480;51.456;6.670;2022-12-16T15:06:27;114.83;;;47.80;;
2940;SDS011;1480;51.456;6.670;2022-12-16T15:09:17;133.90;;;52.03;;
2940;SDS011;1480;51.456;6.670;2022-12-16T15:12:06;108.70;;;51.37;;
2940;SDS011;1480;51.456;6.670;2022-12-16T15:14:52;135.00;;;53.73;;
2940;SDS011;1480;51.456;6.670;2022-12-16T15:17:43;135.23;;;50.63;;
2940;SDS011;1480;51.456;6.670;2022-12-16T15:20:32;125.27;;;48.73;;
2940;SDS011;1480;51.456;6.670;2022-12-16T15:23:20;112.83;;;47.60;;
2940;SDS011;1480;51.456;6.670;2022-12-16T15:26:06;116.87;;;47.30;;
2940;SDS011;1480;51.456;6.670;2022-12-16T15:28:51;117.30;;;49.23;;
2940;SDS011;1480;51.456;6.670;2022-12-16T15:31:36;120.73;;;47.87;;
2940;SDS011;1480;51.456;6.670;2022-12-16T15:34:24;113.13;;;44.00;;
2940;SDS011;1480;51.456;6.670;2022-12-16T15:37:15;95.73;;;43.93;;
2940;SDS011;1480;51.456;6.670;2022-12-16T15:40:02;108.37;;;44.73;;
2940;SDS011;1480;51.456;6.670;2022-12-16T15:42:50;85.40;;;41.37;;
2940;SDS011;1480;51.456;6.670;2022-12-16T15:45:35;133.90;;;53.60;;
2940;SDS011;1480;51.456;6.670;2022-12-16T15:48:20;126.27;;;50.13;;
2940;SDS011;1480;51.456;6.670;2022-12-16T15:51:23;96.80;;;46.77;;
2940;SDS011;1480;51.456;6.670;2022-12-16T15:54:13;96.27;;;45.87;;
2940;SDS011;1480;51.456;6.670;2022-12-16T15:56:59;96.80;;;44.10;;
2940;SDS011;1480;51.456;6.670;2022-12-16T15:59:54;128.40;;;56.07;;
2940;SDS011;1480;51.456;6.670;2022-12-16T16:02:44;111.17;;;49.93;;
2940;SDS011;1480;51.456;6.670;2022-12-16T16:05:30;93.67;;;46.13;;
2940;SDS011;1480;51.456;6.670;2022-12-16T16:08:16;105.83;;;46.17;;
2940;SDS011;1480;51.456;6.670;2022-12-16T16:11:00;95.00;;;42.40;;
2940;SDS011;1480;51.456;6.670;2022-12-16T16:13:44;98.13;;;48.03;;
2940;SDS011;1480;51.456;6.670;2022-12-16T16:16:29;100.40;;;41.10;;
2940;SDS011;1480;51.456;6.670;2022-12-16T16:19:15;99.17;;;44.70;;
2940;SDS011;1480;51.456;6.670;2022-12-16T16:22:04;75.77;;;39.97;;
2940;SDS011;1480;51.456;6.670;2022-12-16T16:24:55;103.60;;;43.27;;
2940;SDS011;1480;51.456;6.670;2022-12-16T16:27:39;88.77;;;45.83;;
2940;SDS011;1480;51.456;6.670;2022-12-16T16:30:23;106.07;;;44.77;;
2940;SDS011;1480;51.456;6.670;2022-12-16T16:33:07;87.13;;;41.70;;
2940;SDS011;1480;51.456;6.670;2022-12-16T16:35:51;84.30;;;41.37;;
2940;SDS011;1480;51.456;6.670;2022-12-16T16:38:47;91.73;;;41.63;;
2940;SDS011;1480;51.456;6.670;2022-12-16T16:41:33;102.70;;;45.87;;
2940;SDS011;1480;51.456;6.670;2022-12-16T16:44:17;98.47;;;42.07;;
2940;SDS011;1480;51.456;6.670;2022-12-16T16:47:02;95.43;;;45.53;;
2940;SDS011;1480;51.456;6.670;2022-12-16T16:49:46;84.87;;;41.87;;
2940;SDS011;1480;51.456;6.670;2022-12-16T16:52:31;94.07;;;43.87;;
2940;SDS011;1480;51.456;6.670;2022-12-16T16:55:16;106.90;;;48.67;;
2940;SDS011;1480;51.456;6.670;2022-12-16T16:58:05;113.93;;;52.57;;
2940;SDS011;1480;51.456;6.670;2022-12-16T17:01:07;106.10;;;49.67;;
2940;SDS011;1480;51.456;6.670;2022-12-16T17:03:54;91.20;;;46.40;;
2940;SDS011;1480;51.456;6.670;2022-12-16T17:06:39;100.67;;;48.03;;
2940;SDS011;1480;51.456;6.670;2022-12-16T17:09:23;94.90;;;45.10;;
2940;SDS011;1480;51.456;6.670;2022-12-16T17:12:10;86.93;;;44.00;;
2940;SDS011;1480;51.456;6.670;2022-12-16T17:15:04;86.20;;;42.20;;
2940;SDS011;1480;51.456;6.670;2022-12-16T17:17:59;97.23;;;43.47;;
2940;SDS011;1480;51.456;6.670;2022-12-16T17:20:44;77.37;;;42.60;;
2940;SDS011;1480;51.456;6.670;2022-12-16T17:23:28;84.97;;;42.23;;
2940;SDS011;1480;51.456;6.670;2022-12-16T17:26:13;80.13;;;39.53;;
2940;SDS011;1480;51.456;6.670;2022-12-16T17:28:57;95.07;;;47.17;;
2940;SDS011;1480;51.456;6.670;2022-12-16T17:31:43;88.03;;;44.67;;
2940;SDS011;1480;51.456;6.670;2022-12-16T17:34:27;96.73;;;44.23;;
2940;SDS011;1480;51.456;6.670;2022-12-16T17:37:12;74.20;;;44.80;;
2940;SDS011;1480;51.456;6.670;2022-12-16T17:40:11;90.63;;;47.33;;
2940;SDS011;1480;51.456;6.670;2022-12-16T17:42:55;79.93;;;41.07;;
2940;SDS011;1480;51.456;6.670;2022-12-16T17:45:36;87.80;;;42.37;;
2940;SDS011;1480;51.456;6.670;2022-12-16T17:48:22;75.07;;;44.10;;
2940;SDS011;1480;51.456;6.670;2022-12-16T17:51:06;91.30;;;46.10;;
2940;SDS011;1480;51.456;6.670;2022-12-16T17:53:51;89.07;;;44.13;;
2940;SDS011;1480;51.456;6.670;2022-12-16T17:56:35;85.30;;;44.60;;
2940;SDS011;1480;51.456;6.670;2022-12-16T17:59:20;96.60;;;44.40;;
2940;SDS011;1480;51.456;6.670;2022-12-16T18:02:04;89.30;;;47.00;;
2940;SDS011;1480;51.456;6.670;2022-12-16T18:04:50;91.73;;;48.60;;
2940;SDS011;1480;51.456;6.670;2022-12-16T18:07:34;98.73;;;45.93;;
2940;SDS011;1480;51.456;6.670;2022-12-16T18:10:19;81.83;;;43.37;;
2940;SDS011;1480;51.456;6.670;2022-12-16T18:13:03;88.93;;;44.00;;
2940;SDS011;1480;51.456;6.670;2022-12-16T18:15:50;85.30;;;44.33;;
2940;SDS011;1480;51.456;6.670;2022-12-16T18:18:35;88.00;;;43.77;;
2940;SDS011;1480;51.456;6.670;2022-12-16T18:21:21;93.10;;;43.80;;
2940;SDS011;1480;51.456;6.670;2022-12-16T18:24:24;89.03;;;44.90;;
2940;SDS011;1480;51.456;6.670;2022-12-16T18:27:09;116.00;;;54.83;;
2940;SDS011;1480;51.456;6.670;2022-12-16T18:29:54;76.90;;;43.60;;
2940;SDS011;1480;51.456;6.670;2022-12-16T18:32:38;88.90;;;44.90;;
2940;SDS011;1480;51.456;6.670;2022-12-16T18:35:22;99.30;;;46.43;;
2940;SDS011;1480;51.456;6.670;2022-12-16T18:38:08;95.50;;;46.80;;
2940;SDS011;1480;51.456;6.670;2022-12-16T18:41:02;92.70;;;46.10;;
2940;SDS011;1480;51.456;6.670;2022-12-16T18:43:49;111.63;;;46.67;;
2940;SDS011;1480;51.456;6.670;2022-12-16T18:46:33;79.23;;;40.87;;
2940;SDS011;1480;51.456;6.670;2022-12-16T18:49:17;97.13;;;42.13;;
2940;SDS011;1480;51.456;6.670;2022-12-16T18:52:19;98.30;;;47.47;;
2940;SDS011;1480;51.456;6.670;2022-12-16T18:55:05;85.53;;;39.40;;
2940;SDS011;1480;51.456;6.670;2022-12-16T18:57:50;93.07;;;44.47;;
2940;SDS011;1480;51.456;6.670;2022-12-16T19:00:35;100.37;;;44.53;;
2940;SDS011;1480;51.456;6.670;2022-12-16T19:03:20;114.47;;;50.37;;
2940;SDS011;1480;51.456;6.670;2022-12-16T19:06:05;108.23;;;51.10;;
2940;SDS011;1480;51.456;6.670;2022-12-16T19:08:49;112.90;;;49.87;;
2940;SDS011;1480;51.456;6.670;2022-12-16T19:11:35;108.50;;;50.03;;
2940;SDS011;1480;51.456;6.670;2022-12-16T19:14:19;100.83;;;47.37;;
2940;SDS011;1480;51.456;6.670;2022-12-16T19:17:04;125.83;;;55.13;;
2940;SDS011;1480;51.456;6.670;2022-12-16T19:19:48;116.57;;;53.33;;
2940;SDS011;1480;51.456;6.670;2022-12-16T19:22:33;132.40;;;58.07;;
2940;SDS011;1480;51.456;6.670;2022-12-16T19:25:18;124.27;;;55.63;;
2940;SDS011;1480;51.456;6.670;2022-12-16T19:28:03;145.50;;;56.20;;
2940;SDS011;1480;51.456;6.670;2022-12-16T19:30:54;128.70;;;50.27;;
2940;SDS011;1480;51.456;6.670;2022-12-16T19:33:40;111.00;;;50.87;;
2940;SDS011;1480;51.456;6.670;2022-12-16T19:36:24;137.90;;;52.57;;
2940;SDS011;1480;51.456;6.670;2022-12-16T19:39:09;129.63;;;52.80;;
2940;SDS011;1480;51.456;6.670;2022-12-16T19:41:53;132.67;;;52.53;;
2940;SDS011;1480;51.456;6.670;2022-12-16T19:44:39;149.93;;;56.33;;
2940;SDS011;1480;51.456;6.670;2022-12-16T19:47:28;113.03;;;52.63;;
2940;SDS011;1480;51.456;6.670;2022-12-16T19:50:13;105.50;;;48.97;;
2940;SDS011;1480;51.456;6.670;2022-12-16T19:52:58;115.57;;;54.23;;
2940;SDS011;1480;51.456;6.670;2022-12-16T19:55:42;155.33;;;59.03;;
2940;SDS011;1480;51.456;6.670;2022-12-16T19:58:26;135.80;;;56.83;;
2940;SDS011;1480;51.456;6.670;2022-12-16T20:01:12;139.93;;;57.57;;
2940;SDS011;1480;51.456;6.670;2022-12-16T20:03:56;146.37;;;57.00;;
2940;SDS011;1480;51.456;6.670;2022-12-16T20:06:41;149.67;;;60.97;;
2940;SDS011;1480;51.456;6.670;2022-12-16T20:09:25;113.77;;;50.20;;
2940;SDS011;1480;51.456;6.670;2022-12-16T20:12:10;134.63;;;55.97;;
2940;SDS011;1480;51.456;6.670;2022-12-16T20:14:54;134.07;;;53.90;;
2940;SDS011;1480;51.456;6.670;2022-12-16T20:17:41;126.47;;;52.93;;
2940;SDS011;1480;51.456;6.670;2022-12-16T20:20:25;116.60;;;52.20;;
2940;SDS011;1480;51.456;6.670;2022-12-16T20:23:09;123.87;;;54.27;;
2940;SDS011;1480;51.456;6.670;2022-12-16T20:25:54;142.30;;;55.07;;
2940;SDS011;1480;51.456;6.670;2022-12-16T20:28:39;146.70;;;52.27;;
2940;SDS011;1480;51.456;6.670;2022-12-16T20:31:24;136.60;;;52.53;;
2940;SDS011;1480;51.456;6.670;2022-12-16T20:34:09;101.50;;;46.00;;
2940;SDS011;1480;51.456;6.670;2022-12-16T20:36:54;105.40;;;52.53;;
2940;SDS011;1480;51.456;6.670;2022-12-16T20:39:38;127.40;;;50.67;;
2940;SDS011;1480;51.456;6.670;2022-12-16T20:42:22;120.50;;;49.60;;
2940;SDS011;1480;51.456;6.670;2022-12-16T20:45:07;140.10;;;57.07;;
2940;SDS011;1480;51.456;6.670;2022-12-16T20:47:52;146.23;;;54.50;;
2940;SDS011;1480;51.456;6.670;2022-12-16T20:50:38;143.80;;;57.30;;
2940;SDS011;1480;51.456;6.670;2022-12-16T20:53:22;139.90;;;58.17;;
2940;SDS011;1480;51.456;6.670;2022-12-16T20:56:07;119.30;;;50.57;;
2940;SDS011;1480;51.456;6.670;2022-12-16T20:58:52;128.03;;;55.80;;
2940;SDS011;1480;51.456;6.670;2022-12-16T21:01:37;150.40;;;57.67;;
2940;SDS011;1480;51.456;6.670;2022-12-16T21:04:21;158.70;;;62.07;;
2940;SDS011;1480;51.456;6.670;2022-12-16T21:07:07;172.87;;;67.37;;
2940;SDS011;1480;51.456;6.670;2022-12-16T21:09:51;175.90;;;65.03;;
2940;SDS011;1480;51.456;6.670;2022-12-16T21:12:36;146.33;;;60.10;;
2940;SDS011;1480;51.456;6.670;2022-12-16T21:15:20;174.63;;;59.13;;
2940;SDS011;1480;51.456;6.670;2022-12-16T21:18:05;155.07;;;60.47;;
2940;SDS011;1480;51.456;6.670;2022-12-16T21:20:50;154.03;;;57.20;;
2940;SDS011;1480;51.456;6.670;2022-12-16T21:23:36;137.13;;;55.13;;
2940;SDS011;1480;51.456;6.670;2022-12-16T21:26:20;136.53;;;54.50;;
2940;SDS011;1480;51.456;6.670;2022-12-16T21:29:04;152.47;;;61.60;;
2940;SDS011;1480;51.456;6.670;2022-12-16T21:31:49;153.00;;;61.00;;
2940;SDS011;1480;51.456;6.670;2022-12-16T21:34:34;179.17;;;63.10;;
2940;SDS011;1480;51.456;6.670;2022-12-16T21:37:18;164.87;;;61.57;;
2940;SDS011;1480;51.456;6.670;2022-12-16T21:40:12;153.57;;;60.90;;
2940;SDS011;1480;51.456;6.670;2022-12-16T21:42:57;153.93;;;56.03;;
2940;SDS011;1480;51.456;6.670;2022-12-16T21:45:41;152.30;;;58.90;;
2940;SDS011;1480;51.456;6.670;2022-12-16T21:48:26;175.90;;;65.13;;
2940;SDS011;1480;51.456;6.670;2022-12-16T21:51:10;169.10;;;60.30;;
2940;SDS011;1480;51.456;6.670;2022-12-16T21:53:54;155.10;;;65.53;;
2940;SDS011;1480;51.456;6.670;2022-12-16T21:56:40;158.33;;;57.10;;
2940;SDS011;1480;51.456;6.670;2022-12-16T21:59:24;150.73;;;57.10;;
2940;SDS011;1480;51.456;6.670;2022-12-16T22:02:09;149.80;;;55.13;;
2940;SDS011;1480;51.456;6.670;2022-12-16T22:05:04;159.03;;;59.73;;
2940;SDS011;1480;51.456;6.670;2022-12-16T22:07:48;140.97;;;52.07;;
2940;SDS011;1480;51.456;6.670;2022-12-16T22:10:33;142.97;;;56.10;;
2940;SDS011;1480;51.456;6.670;2022-12-16T22:13:19;141.97;;;54.50;;
2940;SDS011;1480;51.456;6.670;2022-12-16T22:16:03;146.40;;;60.27;;
2940;SDS011;1480;51.456;6.670;2022-12-16T22:18:48;135.57;;;54.23;;
2940;SDS011;1480;51.456;6.670;2022-12-16T22:21:35;141.43;;;56.00;;
2940;SDS011;1480;51.456;6.670;2022-12-16T22:24:19;130.77;;;56.77;;
2940;SDS011;1480;51.456;6.670;2022-12-16T22:27:04;120.30;;;52.37;;
2940;SDS011;1480;51.456;6.670;2022-12-16T22:30:05;136.77;;;52.17;;
2940;SDS011;1480;51.456;6.670;2022-12-16T22:32:51;124.77;;;54.17;;
2940;SDS011;1480;51.456;6.670;2022-12-16T22:35:36;135.50;;;56.97;;
2940;SDS011;1480;51.456;6.670;2022-12-16T22:38:20;124.43;;;50.90;;
2940;SDS011;1480;51.456;6.670;2022-12-16T22:41:07;123.97;;;54.40;;
2940;SDS011;1480;51.456;6.670;2022-12-16T22:43:52;129.40;;;51.73;;
2940;SDS011;1480;51.456;6.670;2022-12-16T22:46:38;121.07;;;52.77;;
2940;SDS011;1480;51.456;6.670;2022-12-16T22:49:22;99.37;;;42.90;;
2940;SDS011;1480;51.456;6.670;2022-12-16T22:52:06;120.77;;;51.10;;
2940;SDS011;1480;51.456;6.670;2022-12-16T22:54:51;117.70;;;50.53;;
2940;SDS011;1480;51.456;6.670;2022-12-16T22:57:35;115.13;;;50.57;;
2940;SDS011;1480;51.456;6.670;2022-12-16T23:00:20;95.87;;;46.40;;
2940;SDS011;1480;51.456;6.670;2022-12-16T23:03:06;112.93;;;48.73;;
2940;SDS011;1480;51.456;6.670;2022-12-16T23:05:50;90.53;;;45.10;;
2940;SDS011;1480;51.456;6.670;2022-12-16T23:08:34;94.07;;;43.57;;
2940;SDS011;1480;51.456;6.670;2022-12-16T23:11:23;99.93;;;44.97;;
2940;SDS011;1480;51.456;6.670;2022-12-16T23:14:08;93.83;;;42.57;;
2940;SDS011;1480;51.456;6.670;2022-12-16T23:16:55;96.70;;;42.87;;
2940;SDS011;1480;51.456;6.670;2022-12-16T23:19:41;84.73;;;40.03;;
2940;SDS011;1480;51.456;6.670;2022-12-16T23:22:25;107.17;;;43.60;;
2940;SDS011;1480;51.456;6.670;2022-12-16T23:25:10;93.37;;;43.67;;
2940;SDS011;1480;51.456;6.670;2022-12-16T23:27:59;91.30;;;45.57;;
2940;SDS011;1480;51.456;6.670;2022-12-16T23:30:49;104.30;;;44.43;;
2940;SDS011;1480;51.456;6.670;2022-12-16T23:33:34;86.80;;;41.90;;
2940;SDS011;1480;51.456;6.670;2022-12-16T23:36:16;89.87;;;43.47;;
2940;SDS011;1480;51.456;6.670;2022-12-16T23:39:00;75.70;;;37.27;;
2940;SDS011;1480;51.456;6.670;2022-12-16T23:41:45;79.20;;;38.27;;
2940;SDS011;1480;51.456;6.670;2022-12-16T23:44:29;82.83;;;39.63;;
2940;SDS011;1480;51.456;6.670;2022-12-16T23:47:14;92.37;;;37.60;;
2940;SDS011;1480;51.456;6.670;2022-12-16T23:49:58;91.50;;;40.20;;
2940;SDS011;1480;51.456;6.670;2022-12-16T23:52:44;76.90;;;38.70;;
2940;SDS011;1480;51.456;6.670;2022-12-16T23:55:28;76.20;;;35.97;;
2940;SDS011;1480;51.456;6.670;2022-12-16T23:58:13;79.93;;;38.00;;
